createdAt,value
2023-03-21T00:09:40.811Z,8.40
2023-03-21T00:13:11.089Z,8.35
2023-03-21T00:16:49.946Z,8.30
2023-03-21T00:20:36.962Z,8.22
2023-03-21T00:24:08.186Z,8.15
2023-03-21T00:49:26.836Z,8.07
2023-03-21T00:53:04.984Z,8.01
2023-03-21T00:56:42.175Z,7.97
2023-03-21T01:15:56.876Z,7.95
2023-03-21T01:19:52.646Z,7.90
2023-03-21T01:23:28.764Z,7.88
2023-03-21T01:27:34.522Z,7.88
2023-03-21T01:31:05.194Z,7.83
2023-03-21T01:34:46.747Z,7.79
2023-03-21T02:14:08.008Z,7.65
2023-03-21T02:17:49.927Z,7.60
2023-03-21T02:45:28.507Z,7.41
2023-03-21T02:49:08.011Z,7.38
2023-03-21T02:55:58.926Z,7.34
2023-03-21T02:59:13.098Z,7.30
2023-03-21T03:05:42.898Z,7.29
2023-03-21T03:09:17.572Z,7.30
2023-03-21T03:12:58.958Z,7.29
2023-03-21T03:16:37.747Z,7.31
2023-03-21T03:20:16.857Z,7.30
2023-03-21T03:46:18.433Z,7.31
2023-03-21T03:49:54.358Z,7.30
2023-03-21T03:53:16.388Z,7.28
2023-03-21T03:56:55.133Z,7.26
2023-03-21T04:09:45.248Z,7.31
2023-03-21T04:13:14.742Z,7.31
2023-03-21T04:16:46.186Z,7.32
2023-03-21T04:20:36.084Z,7.30
2023-03-21T04:24:14.329Z,7.24
2023-03-21T04:27:58.448Z,7.19
2023-03-21T04:31:36.116Z,7.13
2023-03-21T04:35:09.020Z,7.09
2023-03-21T04:57:58.636Z,7.13
2023-03-21T05:01:46.114Z,7.11
2023-03-21T05:28:38.426Z,7.10
2023-03-21T05:32:23.629Z,7.11
2023-03-21T05:35:56.023Z,7.13
2023-03-21T05:50:56.425Z,7.30
2023-03-21T05:54:41.983Z,7.31
2023-03-21T05:58:20.946Z,7.36
2023-03-21T06:34:54.212Z,8.26
2023-03-21T06:50:29.272Z,8.35
2023-03-21T06:54:07.898Z,8.35
2023-03-21T06:57:57.223Z,8.45
2023-03-21T07:01:36.673Z,8.58
2023-03-21T07:05:16.513Z,8.70
2023-03-21T07:12:32.014Z,8.82
2023-03-21T07:31:44.897Z,9.12
2023-03-21T07:35:27.133Z,9.05
2023-03-21T07:38:31.891Z,9.10
2023-03-21T07:45:59.790Z,9.08
2023-03-21T07:49:29.378Z,9.10
2023-03-21T07:53:01.970Z,9.13
2023-03-21T07:56:23.949Z,9.19
2023-03-21T07:59:59.749Z,9.29
2023-03-21T08:03:31.315Z,9.43
2023-03-21T08:25:58.633Z,9.99
2023-03-21T08:33:39.389Z,10.32
2023-03-21T08:55:39.571Z,11.91
2023-03-21T08:59:11.113Z,12.24
2023-03-21T09:02:50.280Z,12.18
2023-03-21T09:06:27.053Z,11.90
2023-03-21T09:28:21.972Z,11.29
2023-03-21T09:32:01.199Z,11.18
2023-03-21T09:35:37.714Z,11.19
2023-03-21T09:59:03.341Z,11.22
2023-03-21T10:02:39.488Z,11.60
2023-03-21T10:06:19.295Z,11.93
2023-03-21T10:09:48.457Z,12.08
2023-03-21T10:13:20.850Z,12.14
2023-03-21T10:16:58.096Z,12.21
2023-03-21T10:20:44.369Z,12.25
2023-03-21T11:18:40.592Z,10.89
2023-03-21T11:22:13.654Z,10.82
2023-03-21T11:29:01.140Z,10.74
2023-03-21T11:32:44.090Z,10.75
2023-03-21T11:36:14.021Z,10.80
2023-03-21T11:39:44.232Z,10.86
2023-03-21T11:43:26.674Z,10.97
2023-03-21T11:47:03.654Z,11.14
2023-03-21T11:50:33.969Z,11.27
2023-03-21T11:54:21.059Z,11.43
2023-03-21T11:58:13.546Z,11.63
2023-03-21T12:02:06.089Z,11.86
2023-03-21T12:05:34.789Z,12.06
2023-03-21T12:09:25.876Z,12.27
2023-03-21T12:12:53.514Z,12.65
2023-03-21T12:16:23.562Z,12.88
2023-03-21T12:20:08.752Z,12.98
2023-03-21T12:34:49.427Z,14.16
2023-03-21T12:38:37.478Z,14.60
2023-03-21T12:49:00.479Z,14.58
2023-03-21T13:31:57.356Z,13.15
2023-03-21T13:35:35.730Z,13.32
2023-03-21T13:39:21.355Z,13.39
2023-03-21T13:42:53.139Z,13.42
2023-03-21T13:46:28.948Z,13.53
2023-03-21T14:30:20.800Z,12.90
2023-03-21T14:33:53.262Z,12.74
2023-03-21T14:37:22.930Z,12.54
2023-03-21T14:41:04.313Z,12.27
2023-03-21T14:44:55.994Z,11.97
2023-03-21T14:48:36.510Z,11.83
2023-03-21T14:52:06.865Z,11.68
2023-03-21T15:29:06.448Z,10.76
2023-03-21T15:32:30.424Z,10.69
2023-03-21T15:36:23.817Z,10.65
2023-03-21T15:40:00.639Z,10.60
2023-03-21T15:43:51.270Z,10.52
2023-03-21T16:09:53.081Z,10.34
2023-03-21T16:13:41.264Z,10.31
2023-03-21T16:21:17.686Z,10.30
2023-03-21T16:43:10.277Z,10.19
2023-03-21T16:46:54.756Z,10.10
2023-03-21T16:50:29.154Z,10.01
2023-03-21T16:54:02.793Z,9.99
2023-03-21T16:57:44.120Z,9.99
2023-03-21T17:15:55.363Z,9.73
2023-03-21T17:19:32.639Z,9.66
2023-03-21T17:23:04.287Z,9.58
2023-03-21T17:26:36.569Z,9.52
2023-03-21T17:30:09.445Z,9.43
2023-03-21T18:12:40.807Z,8.56
2023-03-21T18:16:21.913Z,8.54
2023-03-21T18:19:53.860Z,8.50
2023-03-21T18:23:26.353Z,8.46
2023-03-21T18:26:53.968Z,8.41
2023-03-21T18:30:56.499Z,8.43
2023-03-21T18:34:28.608Z,8.44
2023-03-21T18:38:05.281Z,8.41
2023-03-21T18:41:30.187Z,8.42
2023-03-21T18:44:50.393Z,8.46
2023-03-21T19:04:14.430Z,8.45
2023-03-21T19:07:40.337Z,8.39
2023-03-21T19:11:19.519Z,8.35
2023-03-21T19:14:53.357Z,8.31
2023-03-21T19:18:46.094Z,8.30
2023-03-21T19:22:24.842Z,8.24
2023-03-21T19:43:56.604Z,7.96
2023-03-21T19:47:49.522Z,7.92
2023-03-21T20:14:19.503Z,8.02
2023-03-21T20:33:17.391Z,8.04
2023-03-21T20:36:53.467Z,8.02
2023-03-21T20:40:37.255Z,8.00
2023-03-21T20:48:27.698Z,7.95
2023-03-21T20:59:41.119Z,7.99
2023-03-21T21:03:19.432Z,7.98
2023-03-21T21:18:27.315Z,7.99
2023-03-21T21:22:08.789Z,7.96
2023-03-21T21:25:49.418Z,7.97
2023-03-21T21:29:23.717Z,7.99
2023-03-21T21:51:25.432Z,7.94
2023-03-21T21:54:53.383Z,7.92
2023-03-21T22:14:05.541Z,7.90
2023-03-21T22:17:35.692Z,7.83
2023-03-21T22:21:05.495Z,7.80
2023-03-21T22:53:58.006Z,7.72
2023-03-21T22:57:29.678Z,7.70
2023-03-21T23:01:05.022Z,7.68
2023-03-21T23:04:37.995Z,7.67
2023-03-21T23:16:16.303Z,7.63
2023-03-21T23:19:56.513Z,7.64
2023-03-21T23:23:29.805Z,7.64
2023-03-21T23:27:14.013Z,7.63
2023-03-21T23:49:29.009Z,7.59
2023-03-21T23:53:14.159Z,7.58
2023-03-21T23:56:36.348Z,7.59
